Time;durP1;ratioP1;P1;durP2;ratioP2;P2;SDS_P1;SDS_P2;PMS_P1;PMS_P2;Temp;Humidity;BMP_temperature;BMP_pressure;BME280_temperature;BME280_humidity;BME280_pressure;Samples;Min_cycle;Max_cycle;Signal;HPM_P1;HPM_P2
2023/04/22 00:02:13;;;;;;;13.60;8.40;;;11.90;95.00;;;;;;5069989;28;20577;-61
2023/04/22 00:04:41;;;;;;;18.43;9.63;;;11.70;95.60;;;;;;5063048;28;20490;-61
2023/04/22 00:07:09;;;;;;;26.47;11.13;;;11.70;95.60;;;;;;5060079;28;20578;-62
2023/04/22 00:09:36;;;;;;;16.37;9.47;;;11.70;95.40;;;;;;5054030;28;20539;-62
2023/04/22 00:12:02;;;;;;;11.00;7.40;;;11.80;95.20;;;;;;5083719;28;20479;-62
2023/04/22 00:14:29;;;;;;;15.57;8.50;;;11.80;94.90;;;;;;5069278;28;20882;-61
2023/04/22 00:16:56;;;;;;;23.73;11.97;;;11.80;95.00;;;;;;5069799;28;21196;-61
2023/04/22 00:19:23;;;;;;;16.00;9.87;;;11.90;95.00;;;;;;5057430;28;20489;-61
2023/04/22 00:21:50;;;;;;;20.37;9.87;;;11.80;95.00;;;;;;5072660;28;20961;-62
2023/04/22 00:24:18;;;;;;;15.83;8.77;;;11.80;95.00;;;;;;5055121;28;20478;-61
2023/04/22 00:26:44;;;;;;;21.97;11.17;;;11.90;95.00;;;;;;5069755;28;20493;-62
2023/04/22 00:29:11;;;;;;;16.60;9.67;;;11.80;95.00;;;;;;5071858;28;21987;-62
2023/04/22 00:31:38;;;;;;;20.17;9.33;;;11.80;94.90;;;;;;5068566;28;20479;-62
2023/04/22 00:34:04;;;;;;;18.43;8.90;;;11.80;94.80;;;;;;5064764;28;20483;-61
2023/04/22 00:36:31;;;;;;;21.87;11.00;;;11.80;94.70;;;;;;5074547;28;20485;-62
2023/04/22 00:38:58;;;;;;;23.23;11.10;;;11.70;94.90;;;;;;5063938;28;20489;-61
2023/04/22 00:41:27;;;;;;;32.57;12.27;;;11.50;95.30;;;;;;5059745;28;21023;-61
2023/04/22 00:43:54;;;;;;;24.40;11.53;;;11.50;95.70;;;;;;5055984;28;20720;-62
2023/04/22 00:46:21;;;;;;;26.30;12.30;;;11.60;95.50;;;;;;5073105;28;20843;-61
2023/04/22 00:48:48;;;;;;;18.80;8.37;;;11.50;95.10;;;;;;5074322;28;20852;-61
2023/04/22 00:51:14;;;;;;;18.00;10.00;;;12.00;95.10;;;;;;5072712;28;20490;-62
2023/04/22 00:53:41;;;;;;;18.17;8.70;;;11.50;94.80;;;;;;5064580;28;21005;-61
2023/04/22 00:56:08;;;;;;;28.93;10.83;;;11.40;95.20;;;;;;5071745;28;20494;-61
2023/04/22 00:58:36;;;;;;;21.30;10.93;;;11.30;95.20;;;;;;5072335;28;21061;-61
2023/04/22 01:01:02;;;;;;;18.10;9.60;;;11.40;95.10;;;;;;5072976;28;20854;-62
2023/04/22 01:03:31;;;;;;;17.07;9.20;;;11.40;95.30;;;;;;5057958;28;20548;-61
2023/04/22 01:05:58;;;;;;;21.53;10.80;;;11.30;95.20;;;;;;5064120;28;20478;-61
2023/04/22 01:08:28;;;;;;;20.00;10.83;;;11.40;95.40;;;;;;5062397;28;20474;-61
2023/04/22 01:10:56;;;;;;;13.43;8.47;;;11.40;95.30;;;;;;5071843;28;20569;-61
2023/04/22 01:13:22;;;;;;;17.13;9.07;;;11.40;95.20;;;;;;5046688;28;20504;-61
2023/04/22 01:15:51;;;;;;;23.77;11.83;;;11.30;95.20;;;;;;5068514;28;21035;-61
2023/04/22 01:18:19;;;;;;;19.67;9.03;;;11.30;95.50;;;;;;5073719;28;21009;-61
2023/04/22 01:20:45;;;;;;;15.87;9.90;;;11.00;96.10;;;;;;5072034;28;20478;-61
2023/04/22 01:23:18;;;;;;;22.50;12.00;;;11.10;96.20;;;;;;5062430;28;20483;-61
2023/04/22 01:25:46;;;;;;;20.20;9.10;;;11.10;95.70;;;;;;5073321;28;20813;-61
2023/04/22 01:28:13;;;;;;;16.00;8.93;;;11.10;95.50;;;;;;5065570;28;20506;-62
2023/04/22 01:30:41;;;;;;;21.63;10.00;;;11.10;95.30;;;;;;5067414;28;21207;-61
2023/04/22 01:33:08;;;;;;;24.03;12.30;;;11.00;95.30;;;;;;5069589;28;20490;-61
2023/04/22 01:35:36;;;;;;;19.20;9.53;;;11.00;95.60;;;;;;5071798;28;20478;-62
2023/04/22 01:38:03;;;;;;;16.77;9.90;;;;;;;;;;5072110;28;20573;-61
2023/04/22 01:40:32;;;;;;;16.73;9.60;;;10.80;96.20;;;;;;5071896;28;20470;-61
2023/04/22 01:42:59;;;;;;;14.30;9.27;;;10.80;96.10;;;;;;5064546;28;21065;-61
2023/04/22 01:45:26;;;;;;;15.17;8.40;;;10.80;95.50;;;;;;5070744;28;20593;-61
2023/04/22 01:47:53;;;;;;;17.47;9.73;;;10.70;95.70;;;;;;5067763;28;20525;-61
2023/04/22 01:50:20;;;;;;;21.47;11.73;;;10.50;96.10;;;;;;5064003;28;20478;-62
2023/04/22 01:52:47;;;;;;;24.40;11.57;;;10.50;96.40;;;;;;5072674;28;20485;-61
2023/04/22 01:55:14;;;;;;;19.80;10.53;;;10.60;95.90;;;;;;5071120;28;20493;-61
2023/04/22 01:57:42;;;;;;;15.47;9.07;;;10.60;95.60;;;;;;5062682;28;20513;-61
2023/04/22 02:00:10;;;;;;;19.43;9.50;;;10.60;95.60;;;;;;5068907;28;20482;-61
2023/04/22 02:02:37;;;;;;;17.27;10.20;;;10.60;95.60;;;;;;5067488;28;20490;-61
2023/04/22 02:05:04;;;;;;;18.27;9.87;;;10.50;95.50;;;;;;5070830;28;20471;-61
2023/04/22 02:07:31;;;;;;;15.53;9.40;;;10.60;95.40;;;;;;5071086;28;20875;-61
2023/04/22 02:09:58;;;;;;;17.83;10.30;;;10.60;95.50;;;;;;5068891;28;20509;-61
2023/04/22 02:12:24;;;;;;;17.33;10.23;;;10.50;95.00;;;;;;5069137;28;20493;-61
2023/04/22 02:14:52;;;;;;;19.40;10.20;;;10.20;95.40;;;;;;5075609;28;20490;-61
2023/04/22 02:17:21;;;;;;;14.20;8.97;;;10.10;96.20;;;;;;5074827;28;20485;-61
2023/04/22 02:19:47;;;;;;;16.10;10.10;;;10.10;96.10;;;;;;5074516;28;20839;-61
2023/04/22 02:22:14;;;;;;;11.40;7.80;;;10.00;96.30;;;;;;5071823;28;20481;-61
2023/04/22 02:24:41;;;;;;;13.63;8.53;;;9.80;97.10;;;;;;5071741;28;20994;-61
2023/04/22 02:27:09;;;;;;;14.53;9.50;;;9.80;97.10;;;;;;5069625;28;20475;-61
2023/04/22 02:29:35;;;;;;;14.80;9.00;;;9.80;96.70;;;;;;5076284;28;21021;-61
2023/04/22 02:32:03;;;;;;;16.73;10.37;;;9.90;96.40;;;;;;5075009;28;20475;-61
2023/04/22 02:34:30;;;;;;;12.90;8.90;;;10.00;95.90;;;;;;5076420;28;20494;-61
2023/04/22 02:36:57;;;;;;;19.50;10.50;;;10.00;95.50;;;;;;5073788;28;20492;-61
2023/04/22 02:39:25;;;;;;;18.50;10.43;;;9.90;95.70;;;;;;5073566;28;20478;-61
2023/04/22 02:41:51;;;;;;;16.13;10.53;;;9.90;96.20;;;;;;5064592;28;20482;-61
2023/04/22 02:44:18;;;;;;;18.27;9.30;;;9.80;96.60;;;;;;5073229;28;20489;-61
2023/04/22 02:46:44;;;;;;;14.70;9.60;;;9.80;96.50;;;;;;5077333;28;20481;-61
2023/04/22 02:49:12;;;;;;;12.20;8.20;;;9.70;96.30;;;;;;5075243;28;20485;-61
2023/04/22 02:51:39;;;;;;;26.83;9.57;;;9.60;95.80;;;;;;5076954;28;20891;-61
2023/04/22 02:54:06;;;;;;;11.77;7.97;;;9.60;95.80;;;;;;5076253;28;20491;-61
2023/04/22 02:56:32;;;;;;;13.10;9.20;;;9.50;95.90;;;;;;5078248;28;20478;-61
2023/04/22 02:58:59;;;;;;;10.63;7.67;;;9.50;95.60;;;;;;5074322;28;20509;-61
2023/04/22 03:01:26;;;;;;;13.57;9.33;;;9.40;95.80;;;;;;5072895;28;20818;-61
2023/04/22 03:03:52;;;;;;;17.53;10.30;;;9.40;95.80;;;;;;5074360;28;20815;-61
2023/04/22 03:06:21;;;;;;;13.93;9.20;;;9.40;96.00;;;;;;5071422;28;20490;-61
2023/04/22 03:08:47;;;;;;;18.37;11.37;;;9.30;95.70;;;;;;5070525;28;20977;-61
2023/04/22 03:11:14;;;;;;;16.20;9.70;;;9.30;95.50;;;;;;5070376;28;20478;-61
2023/04/22 03:13:41;;;;;;;12.20;7.90;;;9.20;95.70;;;;;;5074544;28;20531;-61
2023/04/22 03:16:07;;;;;;;20.53;11.93;;;9.30;95.80;;;;;;5074254;28;20493;-61
2023/04/22 03:18:34;;;;;;;13.43;8.37;;;9.20;95.60;;;;;;5065608;28;20686;-61
2023/04/22 03:21:01;;;;;;;14.03;7.10;;;9.00;95.70;;;;;;5076423;28;20478;-61
2023/04/22 03:23:29;;;;;;;14.80;9.20;;;8.70;96.10;;;;;;5077565;28;20483;-61
2023/04/22 03:25:56;;;;;;;14.53;9.23;;;8.60;96.80;;;;;;5066032;28;20482;-61
2023/04/22 03:28:22;;;;;;;13.13;8.40;;;8.70;96.50;;;;;;5075392;28;20487;-61
2023/04/22 03:30:49;;;;;;;17.47;9.70;;;8.70;96.00;;;;;;5074650;28;20492;-61
2023/04/22 03:33:16;;;;;;;24.43;10.20;;;8.80;95.70;;;;;;5075906;28;20489;-60
2023/04/22 03:35:42;;;;;;;20.93;9.70;;;8.80;95.60;;;;;;5075977;28;20813;-61
2023/04/22 03:38:09;;;;;;;14.37;9.10;;;8.80;95.80;;;;;;5076675;28;20814;-61
2023/04/22 03:40:37;;;;;;;15.03;9.13;;;8.90;95.80;;;;;;5076343;28;20486;-61
2023/04/22 03:43:04;;;;;;;28.07;9.60;;;8.90;95.80;;;;;;5077212;28;20482;-61
2023/04/22 03:45:30;;;;;;;17.00;9.83;;;8.90;95.60;;;;;;5079996;28;20478;-61
2023/04/22 03:47:57;;;;;;;13.37;7.90;;;8.80;95.40;;;;;;5077907;28;20477;-60
2023/04/22 03:50:24;;;;;;;13.33;8.53;;;8.60;95.90;;;;;;5064187;28;20912;-60
2023/04/22 03:52:51;;;;;;;15.73;8.47;;;8.60;96.10;;;;;;5077746;28;20778;-61
2023/04/22 03:55:17;;;;;;;13.50;8.33;;;8.60;96.00;;;;;;5076910;28;20490;-61
2023/04/22 03:57:45;;;;;;;15.00;8.50;;;8.70;95.90;;;;;;5075881;28;20850;-61
2023/04/22 04:00:13;;;;;;;16.77;9.33;;;10.60;96.10;;;;;;5066248;28;20467;-61
2023/04/22 04:02:40;;;;;;;12.67;8.10;;;8.80;95.70;;;;;;5076862;28;20713;-61
2023/04/22 04:05:08;;;;;;;16.27;7.63;;;8.60;95.70;;;;;;5076466;28;20958;-61
2023/04/22 04:07:34;;;;;;;12.53;7.27;;;8.40;95.80;;;;;;5078721;28;20474;-61
2023/04/22 04:10:01;;;;;;;10.17;7.27;;;8.20;96.60;;;;;;5073089;28;21017;-61
2023/04/22 04:12:28;;;;;;;14.97;9.40;;;8.10;96.00;;;;;;5076451;28;20493;-61
2023/04/22 04:14:56;;;;;;;16.60;9.00;;;8.00;95.90;;;;;;5060377;28;20487;-61
2023/04/22 04:17:24;;;;;;;13.77;8.30;;;7.90;96.50;;;;;;5057478;28;20875;-61
2023/04/22 04:19:51;;;;;;;15.97;8.63;;;7.90;97.30;;;;;;5075938;28;20553;-61
2023/04/22 04:22:18;;;;;;;18.50;9.63;;;7.90;97.20;;;;;;5063355;28;20498;-60
2023/04/22 04:24:46;;;;;;;15.67;8.10;;;8.00;96.90;;;;;;5067673;28;20508;-61
2023/04/22 04:27:12;;;;;;;26.53;7.90;;;8.00;96.40;;;;;;5067706;28;20641;-61
2023/04/22 04:29:40;;;;;;;11.07;7.00;;;7.90;96.40;;;;;;5061726;28;20487;-61
2023/04/22 04:32:08;;;;;;;18.83;8.93;;;7.80;96.90;;;;;;5058873;28;20486;-61
2023/04/22 04:34:36;;;;;;;16.37;9.30;;;7.60;98.00;;;;;;5064882;28;20925;-61
2023/04/22 04:37:03;;;;;;;14.90;7.97;;;7.60;98.30;;;;;;5074844;28;20479;-60
2023/04/22 04:39:30;;;;;;;15.37;8.17;;;7.70;98.20;;;;;;5076416;28;20482;-60
2023/04/22 04:41:57;;;;;;;14.03;9.00;;;7.90;97.60;;;;;;5075139;28;20478;-60
2023/04/22 04:44:25;;;;;;;20.93;10.60;;;7.90;97.20;;;;;;5070469;28;20989;-61
2023/04/22 04:46:53;;;;;;;14.43;8.10;;;8.00;96.80;;;;;;5046844;28;20961;-61
2023/04/22 04:49:21;;;;;;;21.07;9.60;;;8.10;96.60;;;;;;5075718;28;20957;-61
2023/04/22 04:51:49;;;;;;;25.20;9.73;;;8.10;96.70;;;;;;5073852;28;20508;-61
2023/04/22 04:54:15;;;;;;;23.70;10.53;;;8.10;96.80;;;;;;5075610;28;20826;-61
2023/04/22 04:56:42;;;;;;;15.40;6.60;;;8.10;96.70;;;;;;5062732;28;21002;-61
2023/04/22 04:59:09;;;;;;;14.37;7.83;;;8.20;96.60;;;;;;5063563;28;20479;-61
2023/04/22 05:01:36;;;;;;;17.90;8.50;;;8.20;96.30;;;;;;5060360;28;20487;-61
2023/04/22 05:04:02;;;;;;;15.67;6.33;;;8.10;95.90;;;;;;5073108;28;20493;-61
2023/04/22 05:06:31;;;;;;;15.53;8.60;;;8.10;95.60;;;;;;5075455;28;20478;-60
2023/04/22 05:08:58;;;;;;;13.73;7.17;;;8.00;95.90;;;;;;5060113;28;20478;-60
2023/04/22 05:11:25;;;;;;;21.70;9.53;;;6.30;95.50;;;;;;5074383;28;20489;-61
2023/04/22 05:13:51;;;;;;;25.13;11.10;;;8.10;96.30;;;;;;5034944;28;20801;-61
2023/04/22 05:16:18;;;;;;;17.00;8.37;;;8.10;96.30;;;;;;5066463;28;20479;-61
2023/04/22 05:18:45;;;;;;;15.17;7.23;;;8.00;96.60;;;;;;5052412;28;20483;-61
2023/04/22 05:21:11;;;;;;;15.57;9.27;;;8.10;96.90;;;;;;5053886;28;20490;-60
2023/04/22 05:23:39;;;;;;;19.13;9.40;;;8.00;97.60;;;;;;5050027;28;20483;-61
2023/04/22 05:26:06;;;;;;;14.50;7.17;;;8.10;97.90;;;;;;5060996;28;20480;-61
2023/04/22 05:28:33;;;;;;;12.57;7.67;;;8.30;98.10;;;;;;5075232;28;20486;-61
2023/04/22 05:30:59;;;;;;;20.43;9.80;;;8.40;98.10;;;;;;5070572;28;20505;-61
2023/04/22 05:33:26;;;;;;;18.07;9.00;;;8.60;97.90;;;;;;5070685;28;20479;-60
2023/04/22 05:35:52;;;;;;;17.63;8.33;;;8.70;97.80;;;;;;5064568;28;20481;-61
2023/04/22 05:38:19;;;;;;;15.77;8.67;;;8.80;97.70;;;;;;5072451;28;20481;-61
2023/04/22 05:40:47;;;;;;;13.87;8.17;;;8.90;97.70;;;;;;5069418;28;20487;-61
2023/04/22 05:43:15;;;;;;;20.43;10.67;;;8.90;98.10;;;;;;5070792;28;20470;-61
2023/04/22 05:45:42;;;;;;;18.73;8.53;;;8.90;97.90;;;;;;5067143;28;20483;-61
2023/04/22 05:48:08;;;;;;;13.27;5.80;;;9.00;97.90;;;;;;5068824;28;21108;-61
2023/04/22 05:50:35;;;;;;;13.23;7.37;;;9.10;97.90;;;;;;5069024;28;21174;-61
2023/04/22 05:53:02;;;;;;;19.70;9.30;;;9.20;97.70;;;;;;5074321;28;20513;-61
2023/04/22 05:55:28;;;;;;;20.40;8.90;;;9.20;97.40;;;;;;5070503;28;20479;-61
2023/04/22 05:57:56;;;;;;;15.00;7.90;;;9.20;97.50;;;;;;5057950;28;20502;-61
2023/04/22 06:00:23;;;;;;;24.00;8.90;;;9.20;97.60;;;;;;5060705;28;20484;-61
2023/04/22 06:02:50;;;;;;;20.50;8.40;;;9.30;97.70;;;;;;5072533;28;20478;-61
2023/04/22 06:05:16;;;;;;;20.20;10.60;;;9.40;97.60;;;;;;5073678;28;20482;-60
2023/04/22 06:07:43;;;;;;;21.67;9.50;;;9.60;98.10;;;;;;5075608;28;20905;-61
2023/04/22 06:10:10;;;;;;;27.90;9.47;;;9.80;98.10;;;;;;5068503;28;20485;-61
2023/04/22 06:12:37;;;;;;;20.50;9.47;;;9.70;98.00;;;;;;5063808;28;20475;-61
2023/04/22 06:15:06;;;;;;;18.43;9.80;;;9.90;98.20;;;;;;5041551;28;20479;-61
2023/04/22 06:17:33;;;;;;;22.33;9.90;;;10.30;98.50;;;;;;5063773;28;20703;-61
2023/04/22 06:19:59;;;;;;;20.70;10.63;;;10.60;98.50;;;;;;5073462;28;20653;-61
2023/04/22 06:22:26;;;;;;;29.53;14.03;;;11.00;98.20;;;;;;5068925;28;20475;-61
2023/04/22 06:24:52;;;;;;;19.37;9.97;;;11.40;97.30;;;;;;5073695;28;20494;-61
2023/04/22 06:27:19;;;;;;;15.50;9.07;;;11.70;97.20;;;;;;5065364;28;20486;-61
2023/04/22 06:29:46;;;;;;;20.27;10.00;;;11.80;97.00;;;;;;5063059;28;20470;-61
2023/04/22 06:32:14;;;;;;;39.73;14.23;;;12.40;97.20;;;;;;5065476;28;20471;-61
2023/04/22 06:34:41;;;;;;;18.70;10.80;;;13.00;97.00;;;;;;5057220;28;20481;-61
2023/04/22 06:37:07;;;;;;;18.83;10.90;;;13.60;96.20;;;;;;5062645;28;20470;-61
2023/04/22 06:39:34;;;;;;;14.70;7.30;;;14.50;95.30;;;;;;5046384;28;20571;-62
2023/04/22 06:42:01;;;;;;;10.47;7.87;;;14.90;93.90;;;;;;5067447;28;20506;-61
2023/04/22 06:44:28;;;;;;;9.23;7.17;;;15.30;94.70;;;;;;5073628;28;20602;-62
2023/04/22 06:46:55;;;;;;;13.13;6.70;;;15.90;94.20;;;;;;5061939;28;20831;-62
2023/04/22 06:49:23;;;;;;;15.87;8.20;;;16.40;93.10;;;;;;5050787;28;20709;-62
2023/04/22 06:51:50;;;;;;;12.10;6.90;;;16.80;94.00;;;;;;5052307;28;20482;-62
2023/04/22 06:54:17;;;;;;;12.40;7.00;;;16.80;92.60;;;;;;5072897;28;20531;-62
2023/04/22 06:56:43;;;;;;;7.40;6.70;;;16.90;92.10;;;;;;5060535;28;21147;-62
2023/04/22 06:59:10;;;;;;;13.63;9.70;;;16.90;93.00;;;;;;5086573;28;20752;-62
2023/04/22 07:01:37;;;;;;;15.03;7.20;;;17.00;92.20;;;;;;5072812;28;20488;-62
2023/04/22 07:04:03;;;;;;;9.73;7.17;;;17.00;92.40;;;;;;5093850;28;20481;-62
2023/04/22 07:06:31;;;;;;;8.40;7.07;;;17.30;92.50;;;;;;5074014;28;20509;-62
2023/04/22 07:08:58;;;;;;;12.43;6.40;;;17.80;93.40;;;;;;5064272;28;20939;-62
2023/04/22 07:11:25;;;;;;;9.10;7.57;;;17.90;91.40;;;;;;5065514;28;20486;-62
2023/04/22 07:13:51;;;;;;;8.23;7.17;;;18.10;92.00;;;;;;5076493;28;20470;-62
2023/04/22 07:16:18;;;;;;;20.43;7.73;;;18.20;91.10;;;;;;5085967;28;20831;-62
2023/04/22 07:18:45;;;;;;;8.47;6.50;;;18.30;92.50;;;;;;5097364;28;20477;-63
2023/04/22 07:21:11;;;;;;;7.47;6.50;;;18.40;91.80;;;;;;5073461;28;20482;-62
2023/04/22 07:23:39;;;;;;;7.87;7.03;;;18.80;92.50;;;;;;5097610;28;20811;-62
2023/04/22 07:26:06;;;;;;;8.63;6.27;;;19.00;92.20;;;;;;5086902;28;20485;-63
2023/04/22 07:28:33;;;;;;;8.60;7.20;;;19.10;91.60;;;;;;5081565;28;20489;-63
2023/04/22 07:30:59;;;;;;;8.30;6.50;;;19.30;91.60;;;;;;5088889;28;20825;-62
2023/04/22 07:33:26;;;;;;;6.83;5.57;;;19.40;91.40;;;;;;5077237;28;20854;-63
2023/04/22 07:35:53;;;;;;;12.10;6.53;;;19.50;90.90;;;;;;5078661;28;20845;-62
2023/04/22 07:38:20;;;;;;;8.00;6.63;;;19.80;91.90;;;;;;5097305;28;20465;-63
2023/04/22 07:40:48;;;;;;;9.47;7.43;;;19.90;90.50;;;;;;5077533;28;20961;-62
2023/04/22 07:43:14;;;;;;;10.47;6.20;;;20.10;91.40;;;;;;5078323;28;20839;-63
2023/04/22 07:45:41;;;;;;;8.50;6.20;;;20.20;90.10;;;;;;5077189;28;20876;-63
2023/04/22 07:48:08;;;;;;;16.23;8.03;;;20.20;90.10;;;;;;5086737;28;21029;-63
2023/04/22 07:50:34;;;;;;;9.60;7.03;;;20.00;87.70;;;;;;5095854;28;20897;-62
2023/04/22 07:53:01;;;;;;;9.27;5.73;;;19.80;88.40;;;;;;5068702;28;20710;-62
2023/04/22 07:55:28;;;;;;;9.07;6.33;;;19.60;90.30;;;;;;5082798;28;20486;-63
2023/04/22 07:57:56;;;;;;;16.97;9.00;;;19.50;87.50;;;;;;5072981;28;20509;-63
2023/04/22 08:00:22;;;;;;;9.83;7.00;;;19.30;85.10;;;;;;5056939;28;20474;-62
2023/04/22 08:02:49;;;;;;;7.80;5.80;;;19.40;87.70;;;;;;5065183;28;20485;-62
2023/04/22 08:05:16;;;;;;;7.80;5.33;;;19.30;84.20;;;;;;5080092;28;21285;-62
2023/04/22 08:07:43;;;;;;;15.23;5.63;;;19.10;83.90;;;;;;5094048;28;20481;-62
2023/04/22 08:10:10;;;;;;;5.53;4.80;;;19.10;82.30;;;;;;5098351;28;20856;-63
2023/04/22 08:12:37;;;;;;;27.87;6.60;;;19.10;84.00;;;;;;5074053;28;20465;-64
2023/04/22 08:15:06;;;;;;;8.87;5.20;;;19.20;84.20;;;;;;5073951;28;21096;-63
2023/04/22 08:17:33;;;;;;;7.03;6.03;;;19.10;81.00;;;;;;5088041;28;20481;-63
2023/04/22 08:20:00;;;;;;;9.90;6.23;;;18.90;79.20;;;;;;5086564;28;20516;-63
2023/04/22 08:22:27;;;;;;;5.33;4.53;;;19.00;80.30;;;;;;5082177;28;20714;-63
2023/04/22 08:24:53;;;;;;;11.40;5.70;;;19.30;82.60;;;;;;5058155;28;20567;-63
2023/04/22 08:27:21;;;;;;;6.30;5.30;;;19.40;81.30;;;;;;5095961;28;20495;-63
2023/04/22 08:29:48;;;;;;;13.53;5.40;;;19.50;80.50;;;;;;5098072;28;20469;-63
2023/04/22 08:32:18;;;;;;;8.50;5.03;;;19.70;82.20;;;;;;5081777;28;20481;-63
2023/04/22 08:34:45;;;;;;;5.90;4.57;;;19.40;81.20;;;;;;5066617;28;21070;-63
2023/04/22 08:37:11;;;;;;;13.43;4.13;;;19.30;81.50;;;;;;5049585;28;20536;-63
2023/04/22 08:39:38;;;;;;;7.90;6.43;;;19.10;79.60;;;;;;5075893;28;20475;-63
2023/04/22 08:42:05;;;;;;;8.47;5.67;;;19.20;78.90;;;;;;5080312;28;20746;-63
2023/04/22 08:44:32;;;;;;;10.97;4.03;;;19.10;81.50;;;;;;5097061;28;20491;-63
2023/04/22 08:47:00;;;;;;;6.70;5.23;;;18.90;80.90;;;;;;5095258;28;20831;-63
2023/04/22 08:49:29;;;;;;;10.63;7.60;;;19.00;82.60;;;;;;5096776;28;20490;-63
2023/04/22 08:51:57;;;;;;;11.67;4.47;;;19.20;83.40;;;;;;5087699;28;20473;-62
2023/04/22 08:54:24;;;;;;;8.60;6.50;;;19.40;84.30;;;;;;5065054;28;20850;-62
2023/04/22 08:56:51;;;;;;;10.00;6.37;;;19.60;82.30;;;;;;5056249;28;20489;-63
2023/04/22 08:59:20;;;;;;;11.93;6.30;;;19.80;81.70;;;;;;5077518;28;20503;-64
2023/04/22 09:01:51;;;;;;;8.63;5.60;;;20.00;82.40;;;;;;5073247;28;20478;-61
2023/04/22 09:04:19;;;;;;;27.87;7.47;;;20.00;81.80;;;;;;5073321;28;20866;-63
2023/04/22 09:06:47;;;;;;;7.30;5.10;;;20.10;79.20;;;;;;5066225;28;20543;-63
2023/04/22 09:09:14;;;;;;;10.43;5.93;;;20.20;83.10;;;;;;5047294;28;21251;-62
2023/04/22 09:11:41;;;;;;;11.80;6.43;;;20.20;78.90;;;;;;5077092;28;20479;-62
2023/04/22 09:14:07;;;;;;;12.33;7.20;;;20.10;79.40;;;;;;5081238;28;20868;-62
2023/04/22 09:16:40;;;;;;;10.37;5.50;;;20.30;79.80;;;;;;5076480;28;20487;-63
2023/04/22 09:19:11;;;;;;;8.23;4.80;;;20.00;77.50;;;;;;5092155;28;20574;-63
2023/04/22 09:21:39;;;;;;;8.60;4.87;;;20.20;78.50;;;;;;5069244;28;20486;-62
2023/04/22 09:24:08;;;;;;;8.70;4.80;;;20.20;77.10;;;;;;5075549;28;20483;-62
2023/04/22 09:26:39;;;;;;;14.03;5.03;;;20.50;81.00;;;;;;5088239;28;20482;-63
2023/04/22 09:29:08;;;;;;;12.00;5.50;;;20.40;78.10;;;;;;5065274;28;20447;-63
2023/04/22 09:31:36;;;;;;;18.43;6.43;;;20.40;75.00;;;;;;5080970;28;20558;-63
2023/04/22 09:34:03;;;;;;;16.13;6.93;;;20.50;78.80;;;;;;5093047;28;20898;-63
2023/04/22 09:36:32;;;;;;;29.27;8.67;;;20.70;76.80;;;;;;5094465;28;21006;-63
2023/04/22 09:39:02;;;;;;;22.07;6.97;;;20.50;75.00;;;;;;5095844;28;20868;-63
2023/04/22 09:41:32;;;;;;;7.50;4.80;;;20.50;75.90;;;;;;5089617;28;20815;-63
2023/04/22 09:43:59;;;;;;;7.93;4.67;;;20.60;77.30;;;;;;5082964;28;21005;-63
2023/04/22 09:46:27;;;;;;;26.30;6.43;;;20.70;77.70;;;;;;5089851;28;20485;-63
2023/04/22 09:48:56;;;;;;;13.20;5.27;;;20.80;79.80;;;;;;5083084;28;20485;-63
2023/04/22 09:51:22;;;;;;;24.20;8.30;;;20.90;76.40;;;;;;5088605;28;20552;-63
2023/04/22 09:54:00;;;;;;;23.13;6.00;;;21.00;75.70;;;;;;5073194;28;20478;-64
2023/04/22 09:56:50;;;;;;;33.53;7.30;;;20.90;74.90;;;;;;5065843;28;20502;-63
2023/04/22 09:59:22;;;;;;;11.43;6.40;;;20.80;75.60;;;;;;5088362;28;20473;-62
2023/04/22 10:01:50;;;;;;;16.60;6.80;;;21.00;76.40;;;;;;5031476;28;20785;-63
2023/04/22 10:04:20;;;;;;;5.87;3.80;;;20.90;76.10;;;;;;5092911;28;20505;-63
2023/04/22 10:06:47;;;;;;;7.67;4.90;;;20.70;74.30;;;;;;5075008;28;20487;-63
2023/04/22 10:09:17;;;;;;;11.83;5.00;;;20.60;76.30;;;;;;5074251;28;20597;-62
2023/04/22 10:11:44;;;;;;;11.07;5.30;;;20.50;78.20;;;;;;5080488;28;20501;-63
2023/04/22 10:14:13;;;;;;;8.60;5.87;;;20.40;79.50;;;;;;5080854;28;20532;-63
2023/04/22 10:16:41;;;;;;;18.13;5.10;;;20.20;75.10;;;;;;5078403;28;20470;-63
2023/04/22 10:19:12;;;;;;;13.63;5.90;;;20.10;76.50;;;;;;5092695;28;20484;-63
2023/04/22 10:21:41;;;;;;;12.80;4.97;;;20.10;76.80;;;;;;5084732;28;20484;-62
2023/04/22 10:24:14;;;;;;;8.67;5.83;;;19.90;75.60;;;;;;5084578;28;20485;-63
2023/04/22 10:26:43;;;;;;;10.27;6.50;;;19.80;75.30;;;;;;5071447;28;20475;-62
2023/04/22 10:29:15;;;;;;;8.10;5.03;;;19.70;77.00;;;;;;5075240;28;20925;-63
2023/04/22 10:31:43;;;;;;;16.53;5.20;;;19.80;78.50;;;;;;5071051;28;20494;-62
2023/04/22 10:34:12;;;;;;;8.93;6.03;;;19.60;81.10;;;;;;5079525;28;21118;-63
2023/04/22 10:36:56;;;;;;;7.23;5.13;;;20.00;81.90;;;;;;5087626;28;20631;-63
2023/04/22 10:39:24;;;;;;;6.07;3.93;;;20.00;82.20;;;;;;5053614;28;20482;-63
2023/04/22 10:41:57;;;;;;;14.00;5.93;;;20.30;81.90;;;;;;5084723;28;20489;-63
2023/04/22 10:44:29;;;;;;;6.77;4.90;;;19.90;79.80;;;;;;5085248;28;20494;-63
2023/04/22 10:47:00;;;;;;;7.87;4.87;;;19.60;79.60;;;;;;5079316;28;20882;-62
2023/04/22 10:49:30;;;;;;;8.43;4.53;;;19.40;80.00;;;;;;5076562;28;20877;-62
2023/04/22 10:51:59;;;;;;;6.80;5.53;;;19.30;81.80;;;;;;5054176;28;20698;-63
2023/04/22 10:54:57;;;;;;;8.23;5.03;;;19.20;82.00;;;;;;5082478;28;20471;-63
2023/04/22 10:57:39;;;;;;;7.57;5.67;;;19.30;85.20;;;;;;5061681;28;21184;-63
2023/04/22 11:00:42;;;;;;;14.50;4.47;;;19.20;82.40;;;;;;5069433;28;20846;-63
2023/04/22 11:03:14;;;;;;;8.77;4.30;;;19.20;84.40;;;;;;5063196;28;20875;-62
2023/04/22 11:05:41;;;;;;;13.57;5.23;;;19.20;84.20;;;;;;5070303;28;20485;-63
2023/04/22 11:08:12;;;;;;;6.67;4.67;;;;;;;;;;5093233;28;20473;-62
2023/04/22 11:10:41;;;;;;;7.73;5.90;;;19.00;83.80;;;;;;5096510;28;20508;-63
2023/04/22 11:13:10;;;;;;;10.40;6.33;;;18.90;83.60;;;;;;5058624;28;20535;-62
2023/04/22 11:15:38;;;;;;;21.37;5.13;;;18.60;83.50;;;;;;5066028;28;20482;-62
2023/04/22 11:18:11;;;;;;;7.10;5.03;;;18.50;85.10;;;;;;5080493;28;20482;-62
2023/04/22 11:20:38;;;;;;;8.20;5.53;;;18.50;86.80;;;;;;5069811;28;20551;-62
2023/04/22 11:23:04;;;;;;;9.43;4.97;;;18.30;84.30;;;;;;5066560;28;20477;-62
2023/04/22 11:25:31;;;;;;;20.27;6.90;;;18.20;85.30;;;;;;5090405;28;20470;-63
2023/04/22 11:27:59;;;;;;;7.53;5.10;;;18.10;85.20;;;;;;5074993;28;20494;-61
2023/04/22 11:30:28;;;;;;;11.57;5.60;;;18.00;86.20;;;;;;5090105;28;20474;-63
2023/04/22 11:32:57;;;;;;;13.13;6.20;;;17.90;87.10;;;;;;5085957;28;20474;-62
2023/04/22 11:35:27;;;;;;;8.43;5.07;;;17.80;86.80;;;;;;5095800;28;20481;-62
2023/04/22 11:37:56;;;;;;;13.20;5.73;;;17.80;87.10;;;;;;5092435;28;21006;-62
2023/04/22 11:40:25;;;;;;;8.63;4.80;;;17.80;88.30;;;;;;5093998;28;20524;-63
2023/04/22 11:42:51;;;;;;;9.10;6.30;;;17.60;88.20;;;;;;5069138;28;20931;-62
2023/04/22 11:45:18;;;;;;;11.10;5.53;;;17.40;87.80;;;;;;5075060;28;20555;-62
2023/04/22 11:47:45;;;;;;;7.73;5.80;;;17.30;87.70;;;;;;5078570;28;20488;-62
2023/04/22 11:50:14;;;;;;;8.97;4.20;;;17.20;87.70;;;;;;5076702;28;20512;-62
2023/04/22 11:52:50;;;;;;;7.23;5.90;;;17.10;88.70;;;;;;5063322;28;20565;-62
2023/04/22 11:55:19;;;;;;;7.97;4.80;;;17.10;88.30;;;;;;5081360;28;21382;-62
2023/04/22 11:57:53;;;;;;;11.00;6.37;;;16.90;88.50;;;;;;5093435;28;21006;-62
2023/04/22 12:00:19;;;;;;;6.87;5.20;;;17.00;88.60;;;;;;5095181;28;20482;-62
2023/04/22 12:02:56;;;;;;;6.87;5.67;;;17.00;89.00;;;;;;5080242;28;20489;-62
2023/04/22 12:05:36;;;;;;;4.67;4.10;;;17.00;89.50;;;;;;5050669;28;20549;-62
2023/04/22 12:08:07;;;;;;;4.87;4.37;;;17.10;88.50;;;;;;5065853;28;20493;-62
2023/04/22 12:10:38;;;;;;;8.07;6.10;;;17.20;89.70;;;;;;5072895;28;20486;-62
2023/04/22 12:13:05;;;;;;;6.80;5.67;;;17.20;89.90;;;;;;5085617;28;20474;-63
2023/04/22 12:15:42;;;;;;;8.37;5.67;;;17.10;88.90;;;;;;5073767;28;20472;-62
2023/04/22 12:18:09;;;;;;;4.83;4.03;;;17.20;88.60;;;;;;5072379;28;20901;-62
2023/04/22 12:20:36;;;;;;;6.27;5.13;;;17.20;88.60;;;;;;5076914;28;20453;-62
2023/04/22 12:23:04;;;;;;;9.60;5.20;;;17.10;87.30;;;;;;5078260;28;20482;-62
2023/04/22 12:25:32;;;;;;;5.73;5.10;;;17.30;89.20;;;;;;5074165;28;20482;-62
2023/04/22 12:27:59;;;;;;;10.97;5.03;;;17.30;87.40;;;;;;5049431;28;20571;-62
2023/04/22 12:30:26;;;;;;;6.20;4.70;;;17.40;88.00;;;;;;5065283;28;20482;-62
2023/04/22 12:32:53;;;;;;;5.43;4.63;;;17.40;86.70;;;;;;5077014;28;20678;-62
2023/04/22 12:35:19;;;;;;;7.67;4.67;;;17.40;86.90;;;;;;5069439;28;20478;-62
2023/04/22 12:37:46;;;;;;;9.47;4.27;;;17.30;86.60;;;;;;5081106;28;20800;-62
2023/04/22 12:40:14;;;;;;;9.57;5.97;;;17.40;85.70;;;;;;5073627;28;20487;-62
2023/04/22 12:42:41;;;;;;;6.07;5.47;;;17.50;86.10;;;;;;5068554;28;20552;-63
2023/04/22 12:45:09;;;;;;;7.20;5.50;;;17.50;84.20;;;;;;5083133;28;20469;-62